sensor_id;sensor_type;location;lat;lon;timestamp;P1;durP1;ratioP1;P2;durP2;ratioP2
26598;SDS011;14240;51.064;16.612;2022-11-12T00:00:40;68.63;;;28.77;;
26598;SDS011;14240;51.064;16.612;2022-11-12T00:03:06;65.47;;;29.50;;
26598;SDS011;14240;51.064;16.612;2022-11-12T00:05:32;64.75;;;30.70;;
26598;SDS011;14240;51.064;16.612;2022-11-12T00:07:58;70.03;;;30.75;;
26598;SDS011;14240;51.064;16.612;2022-11-12T00:10:24;59.20;;;26.13;;
26598;SDS011;14240;51.064;16.612;2022-11-12T00:12:50;67.25;;;26.50;;
26598;SDS011;14240;51.064;16.612;2022-11-12T00:15:15;67.88;;;29.85;;
26598;SDS011;14240;51.064;16.612;2022-11-12T00:17:41;67.15;;;28.77;;
26598;SDS011;14240;51.064;16.612;2022-11-12T00:20:08;61.20;;;25.33;;
26598;SDS011;14240;51.064;16.612;2022-11-12T00:22:34;45.50;;;21.45;;
26598;SDS011;14240;51.064;16.612;2022-11-12T00:24:59;54.92;;;24.67;;
26598;SDS011;14240;51.064;16.612;2022-11-12T00:27:25;55.80;;;23.65;;
26598;SDS011;14240;51.064;16.612;2022-11-12T00:29:51;54.65;;;23.23;;
26598;SDS011;14240;51.064;16.612;2022-11-12T00:32:17;60.70;;;22.92;;
26598;SDS011;14240;51.064;16.612;2022-11-12T00:34:43;72.65;;;27.38;;
26598;SDS011;14240;51.064;16.612;2022-11-12T00:37:09;63.30;;;28.85;;
26598;SDS011;14240;51.064;16.612;2022-11-12T00:39:35;33.95;;;18.42;;
26598;SDS011;14240;51.064;16.612;2022-11-12T00:42:04;31.33;;;17.15;;
26598;SDS011;14240;51.064;16.612;2022-11-12T00:44:30;27.33;;;13.60;;
26598;SDS011;14240;51.064;16.612;2022-11-12T00:46:55;28.33;;;15.77;;
26598;SDS011;14240;51.064;16.612;2022-11-12T00:49:21;32.72;;;15.82;;
26598;SDS011;14240;51.064;16.612;2022-11-12T00:51:47;34.05;;;17.58;;
26598;SDS011;14240;51.064;16.612;2022-11-12T00:54:13;28.05;;;15.88;;
26598;SDS011;14240;51.064;16.612;2022-11-12T00:56:39;29.15;;;14.98;;
26598;SDS011;14240;51.064;16.612;2022-11-12T00:59:05;25.42;;;12.80;;
26598;SDS011;14240;51.064;16.612;2022-11-12T01:01:31;21.50;;;10.20;;
26598;SDS011;14240;51.064;16.612;2022-11-12T01:03:57;22.13;;;9.35;;
26598;SDS011;14240;51.064;16.612;2022-11-12T01:06:23;21.52;;;10.27;;
26598;SDS011;14240;51.064;16.612;2022-11-12T01:08:49;23.35;;;11.82;;
26598;SDS011;14240;51.064;16.612;2022-11-12T01:11:17;25.83;;;12.73;;
26598;SDS011;14240;51.064;16.612;2022-11-12T01:13:46;24.05;;;12.18;;
26598;SDS011;14240;51.064;16.612;2022-11-12T01:16:18;21.48;;;10.50;;
26598;SDS011;14240;51.064;16.612;2022-11-12T01:18:46;40.22;;;16.90;;
26598;SDS011;14240;51.064;16.612;2022-11-12T01:21:12;61.10;;;20.17;;
26598;SDS011;14240;51.064;16.612;2022-11-12T01:23:40;46.10;;;19.80;;
26598;SDS011;14240;51.064;16.612;2022-11-12T01:26:11;43.45;;;18.98;;
26598;SDS011;14240;51.064;16.612;2022-11-12T01:28:38;28.45;;;15.45;;
26598;SDS011;14240;51.064;16.612;2022-11-12T01:31:12;24.08;;;11.95;;
26598;SDS011;14240;51.064;16.612;2022-11-12T01:33:40;25.15;;;12.00;;
26598;SDS011;14240;51.064;16.612;2022-11-12T01:36:06;37.30;;;17.48;;
26598;SDS011;14240;51.064;16.612;2022-11-12T01:38:36;22.45;;;10.52;;
26598;SDS011;14240;51.064;16.612;2022-11-12T01:41:04;21.10;;;9.88;;
26598;SDS011;14240;51.064;16.612;2022-11-12T01:43:31;18.85;;;8.43;;
26598;SDS011;14240;51.064;16.612;2022-11-12T01:45:57;20.10;;;8.35;;
26598;SDS011;14240;51.064;16.612;2022-11-12T01:48:33;21.40;;;9.30;;
26598;SDS011;14240;51.064;16.612;2022-11-12T01:51:16;20.42;;;9.30;;
26598;SDS011;14240;51.064;16.612;2022-11-12T01:53:45;17.48;;;7.13;;
26598;SDS011;14240;51.064;16.612;2022-11-12T01:56:13;15.18;;;6.72;;
26598;SDS011;14240;51.064;16.612;2022-11-12T01:58:40;27.00;;;7.50;;
26598;SDS011;14240;51.064;16.612;2022-11-12T02:01:08;16.88;;;7.45;;
26598;SDS011;14240;51.064;16.612;2022-11-12T02:03:33;14.23;;;6.70;;
26598;SDS011;14240;51.064;16.612;2022-11-12T02:06:00;20.40;;;8.55;;
26598;SDS011;14240;51.064;16.612;2022-11-12T02:08:29;25.25;;;10.05;;
26598;SDS011;14240;51.064;16.612;2022-11-12T02:10:56;16.97;;;7.83;;
26598;SDS011;14240;51.064;16.612;2022-11-12T02:13:21;20.75;;;7.93;;
26598;SDS011;14240;51.064;16.612;2022-11-12T02:16:06;12.15;;;5.72;;
26598;SDS011;14240;51.064;16.612;2022-11-12T02:18:34;11.82;;;5.97;;
26598;SDS011;14240;51.064;16.612;2022-11-12T02:21:04;16.23;;;6.15;;
26598;SDS011;14240;51.064;16.612;2022-11-12T02:23:32;11.50;;;6.05;;
26598;SDS011;14240;51.064;16.612;2022-11-12T02:25:59;12.00;;;5.90;;
26598;SDS011;14240;51.064;16.612;2022-11-12T02:28:25;14.35;;;7.35;;
26598;SDS011;14240;51.064;16.612;2022-11-12T02:30:52;16.13;;;8.68;;
26598;SDS011;14240;51.064;16.612;2022-11-12T02:33:18;14.85;;;7.10;;
26598;SDS011;14240;51.064;16.612;2022-11-12T02:35:43;14.88;;;6.30;;
26598;SDS011;14240;51.064;16.612;2022-11-12T02:38:09;15.52;;;7.10;;
26598;SDS011;14240;51.064;16.612;2022-11-12T02:40:35;16.40;;;7.03;;
26598;SDS011;14240;51.064;16.612;2022-11-12T02:43:00;14.70;;;5.82;;
26598;SDS011;14240;51.064;16.612;2022-11-12T02:45:26;14.15;;;7.18;;
26598;SDS011;14240;51.064;16.612;2022-11-12T02:47:52;18.88;;;6.15;;
26598;SDS011;14240;51.064;16.612;2022-11-12T02:50:18;14.45;;;6.53;;
26598;SDS011;14240;51.064;16.612;2022-11-12T02:52:44;13.25;;;6.40;;
26598;SDS011;14240;51.064;16.612;2022-11-12T02:55:10;17.67;;;6.70;;
26598;SDS011;14240;51.064;16.612;2022-11-12T02:57:36;24.83;;;7.55;;
26598;SDS011;14240;51.064;16.612;2022-11-12T03:00:03;16.77;;;7.85;;
26598;SDS011;14240;51.064;16.612;2022-11-12T03:02:31;18.95;;;8.00;;
26598;SDS011;14240;51.064;16.612;2022-11-12T03:04:56;17.15;;;7.30;;
26598;SDS011;14240;51.064;16.612;2022-11-12T03:07:22;14.05;;;7.38;;
26598;SDS011;14240;51.064;16.612;2022-11-12T03:09:48;16.08;;;6.30;;
26598;SDS011;14240;51.064;16.612;2022-11-12T03:12:13;25.70;;;7.32;;
26598;SDS011;14240;51.064;16.612;2022-11-12T03:14:39;16.92;;;6.97;;
26598;SDS011;14240;51.064;16.612;2022-11-12T03:17:05;15.73;;;7.20;;
26598;SDS011;14240;51.064;16.612;2022-11-12T03:19:30;19.83;;;6.07;;
26598;SDS011;14240;51.064;16.612;2022-11-12T03:21:56;11.15;;;5.75;;
26598;SDS011;14240;51.064;16.612;2022-11-12T03:24:22;16.88;;;7.20;;
26598;SDS011;14240;51.064;16.612;2022-11-12T03:26:47;15.57;;;6.93;;
26598;SDS011;14240;51.064;16.612;2022-11-12T03:29:13;13.98;;;6.25;;
26598;SDS011;14240;51.064;16.612;2022-11-12T03:31:39;14.07;;;7.60;;
26598;SDS011;14240;51.064;16.612;2022-11-12T03:34:05;15.55;;;6.97;;
26598;SDS011;14240;51.064;16.612;2022-11-12T03:36:30;14.60;;;6.72;;
26598;SDS011;14240;51.064;16.612;2022-11-12T03:38:56;15.48;;;7.40;;
26598;SDS011;14240;51.064;16.612;2022-11-12T03:41:22;13.63;;;6.85;;
26598;SDS011;14240;51.064;16.612;2022-11-12T03:43:47;14.70;;;6.97;;
26598;SDS011;14240;51.064;16.612;2022-11-12T03:46:13;18.17;;;6.65;;
26598;SDS011;14240;51.064;16.612;2022-11-12T03:48:39;14.35;;;6.15;;
26598;SDS011;14240;51.064;16.612;2022-11-12T03:51:07;15.73;;;7.32;;
26598;SDS011;14240;51.064;16.612;2022-11-12T03:53:33;16.00;;;6.75;;
26598;SDS011;14240;51.064;16.612;2022-11-12T03:55:59;15.43;;;7.35;;
26598;SDS011;14240;51.064;16.612;2022-11-12T03:58:25;16.98;;;6.50;;
26598;SDS011;14240;51.064;16.612;2022-11-12T04:00:50;18.27;;;6.63;;
26598;SDS011;14240;51.064;16.612;2022-11-12T04:03:16;14.98;;;7.35;;
26598;SDS011;14240;51.064;16.612;2022-11-12T04:05:42;12.93;;;7.70;;
26598;SDS011;14240;51.064;16.612;2022-11-12T04:08:26;20.48;;;7.30;;
26598;SDS011;14240;51.064;16.612;2022-11-12T04:11:01;15.73;;;7.30;;
26598;SDS011;14240;51.064;16.612;2022-11-12T04:13:37;23.63;;;7.80;;
26598;SDS011;14240;51.064;16.612;2022-11-12T04:16:11;13.85;;;6.88;;
26598;SDS011;14240;51.064;16.612;2022-11-12T04:18:58;23.90;;;7.95;;
26598;SDS011;14240;51.064;16.612;2022-11-12T04:21:44;23.65;;;9.50;;
26598;SDS011;14240;51.064;16.612;2022-11-12T04:24:19;20.88;;;7.72;;
26598;SDS011;14240;51.064;16.612;2022-11-12T04:27:12;17.02;;;6.75;;
26598;SDS011;14240;51.064;16.612;2022-11-12T04:29:40;14.98;;;6.63;;
26598;SDS011;14240;51.064;16.612;2022-11-12T04:32:25;21.90;;;6.78;;
26598;SDS011;14240;51.064;16.612;2022-11-12T04:34:52;18.27;;;7.93;;
26598;SDS011;14240;51.064;16.612;2022-11-12T04:37:18;17.73;;;6.88;;
26598;SDS011;14240;51.064;16.612;2022-11-12T04:39:44;17.95;;;7.05;;
26598;SDS011;14240;51.064;16.612;2022-11-12T04:42:10;15.70;;;7.53;;
26598;SDS011;14240;51.064;16.612;2022-11-12T04:44:55;18.67;;;7.15;;
26598;SDS011;14240;51.064;16.612;2022-11-12T04:47:25;15.25;;;7.68;;
26598;SDS011;14240;51.064;16.612;2022-11-12T04:49:52;17.58;;;7.07;;
26598;SDS011;14240;51.064;16.612;2022-11-12T04:52:18;12.32;;;6.38;;
26598;SDS011;14240;51.064;16.612;2022-11-12T04:54:43;12.23;;;5.75;;
26598;SDS011;14240;51.064;16.612;2022-11-12T04:57:09;10.88;;;5.78;;
26598;SDS011;14240;51.064;16.612;2022-11-12T04:59:35;11.82;;;6.10;;
26598;SDS011;14240;51.064;16.612;2022-11-12T05:02:00;13.18;;;6.60;;
26598;SDS011;14240;51.064;16.612;2022-11-12T05:04:26;11.43;;;5.88;;
26598;SDS011;14240;51.064;16.612;2022-11-12T05:06:56;15.18;;;6.07;;
26598;SDS011;14240;51.064;16.612;2022-11-12T05:09:26;13.85;;;6.25;;
26598;SDS011;14240;51.064;16.612;2022-11-12T05:11:53;14.40;;;6.38;;
26598;SDS011;14240;51.064;16.612;2022-11-12T05:14:19;11.30;;;6.00;;
26598;SDS011;14240;51.064;16.612;2022-11-12T05:16:46;12.73;;;6.75;;
26598;SDS011;14240;51.064;16.612;2022-11-12T05:19:12;9.73;;;5.82;;
26598;SDS011;14240;51.064;16.612;2022-11-12T05:21:37;13.10;;;6.07;;
26598;SDS011;14240;51.064;16.612;2022-11-12T05:24:22;15.38;;;6.72;;
26598;SDS011;14240;51.064;16.612;2022-11-12T05:26:47;12.20;;;5.95;;
26598;SDS011;14240;51.064;16.612;2022-11-12T05:29:13;11.07;;;5.88;;
26598;SDS011;14240;51.064;16.612;2022-11-12T05:31:39;11.18;;;5.50;;
26598;SDS011;14240;51.064;16.612;2022-11-12T05:34:08;14.40;;;5.78;;
26598;SDS011;14240;51.064;16.612;2022-11-12T05:36:33;11.65;;;5.22;;
26598;SDS011;14240;51.064;16.612;2022-11-12T05:38:59;10.85;;;5.85;;
26598;SDS011;14240;51.064;16.612;2022-11-12T05:41:25;13.05;;;5.85;;
26598;SDS011;14240;51.064;16.612;2022-11-12T05:43:51;9.93;;;5.45;;
26598;SDS011;14240;51.064;16.612;2022-11-12T05:46:16;9.52;;;5.03;;
26598;SDS011;14240;51.064;16.612;2022-11-12T05:48:42;11.38;;;5.38;;
26598;SDS011;14240;51.064;16.612;2022-11-12T05:51:08;12.15;;;5.50;;
26598;SDS011;14240;51.064;16.612;2022-11-12T05:53:34;9.05;;;5.05;;
26598;SDS011;14240;51.064;16.612;2022-11-12T05:56:00;10.98;;;5.75;;
26598;SDS011;14240;51.064;16.612;2022-11-12T05:58:26;15.30;;;6.85;;
26598;SDS011;14240;51.064;16.612;2022-11-12T06:00:52;16.83;;;7.70;;
26598;SDS011;14240;51.064;16.612;2022-11-12T06:03:18;15.65;;;8.13;;
26598;SDS011;14240;51.064;16.612;2022-11-12T06:05:44;17.27;;;8.43;;
26598;SDS011;14240;51.064;16.612;2022-11-12T06:08:09;15.65;;;7.28;;
26598;SDS011;14240;51.064;16.612;2022-11-12T06:10:35;19.60;;;8.27;;
26598;SDS011;14240;51.064;16.612;2022-11-12T06:13:01;12.55;;;6.30;;
26598;SDS011;14240;51.064;16.612;2022-11-12T06:15:26;9.50;;;6.20;;
26598;SDS011;14240;51.064;16.612;2022-11-12T06:17:52;9.02;;;5.78;;
26598;SDS011;14240;51.064;16.612;2022-11-12T06:20:19;16.83;;;6.55;;
26598;SDS011;14240;51.064;16.612;2022-11-12T06:22:47;14.18;;;7.15;;
26598;SDS011;14240;51.064;16.612;2022-11-12T06:25:13;17.88;;;6.13;;
26598;SDS011;14240;51.064;16.612;2022-11-12T06:27:39;14.82;;;7.07;;
26598;SDS011;14240;51.064;16.612;2022-11-12T06:30:05;15.40;;;7.47;;
26598;SDS011;14240;51.064;16.612;2022-11-12T06:32:32;14.23;;;6.20;;
26598;SDS011;14240;51.064;16.612;2022-11-12T06:34:57;21.70;;;7.55;;
26598;SDS011;14240;51.064;16.612;2022-11-12T06:37:23;14.05;;;7.32;;
26598;SDS011;14240;51.064;16.612;2022-11-12T06:39:49;15.48;;;7.82;;
26598;SDS011;14240;51.064;16.612;2022-11-12T06:42:15;19.88;;;7.75;;
26598;SDS011;14240;51.064;16.612;2022-11-12T06:44:41;19.00;;;7.32;;
26598;SDS011;14240;51.064;16.612;2022-11-12T06:47:07;18.45;;;7.25;;
26598;SDS011;14240;51.064;16.612;2022-11-12T06:49:33;16.58;;;6.80;;
26598;SDS011;14240;51.064;16.612;2022-11-12T06:51:59;12.75;;;5.85;;
26598;SDS011;14240;51.064;16.612;2022-11-12T06:54:24;15.25;;;5.72;;
26598;SDS011;14240;51.064;16.612;2022-11-12T06:56:50;12.63;;;6.30;;
26598;SDS011;14240;51.064;16.612;2022-11-12T06:59:16;12.32;;;6.30;;
26598;SDS011;14240;51.064;16.612;2022-11-12T07:01:42;14.60;;;5.97;;
26598;SDS011;14240;51.064;16.612;2022-11-12T07:04:07;18.20;;;6.50;;
26598;SDS011;14240;51.064;16.612;2022-11-12T07:06:34;10.32;;;5.85;;
26598;SDS011;14240;51.064;16.612;2022-11-12T07:09:01;11.65;;;6.00;;
26598;SDS011;14240;51.064;16.612;2022-11-12T07:11:27;13.85;;;6.22;;
26598;SDS011;14240;51.064;16.612;2022-11-12T07:13:53;13.27;;;6.68;;
26598;SDS011;14240;51.064;16.612;2022-11-12T07:16:19;11.60;;;5.40;;
26598;SDS011;14240;51.064;16.612;2022-11-12T07:18:46;15.27;;;6.78;;
26598;SDS011;14240;51.064;16.612;2022-11-12T07:21:14;11.10;;;5.90;;
26598;SDS011;14240;51.064;16.612;2022-11-12T07:23:41;13.65;;;6.88;;
26598;SDS011;14240;51.064;16.612;2022-11-12T07:26:10;12.57;;;6.88;;
26598;SDS011;14240;51.064;16.612;2022-11-12T07:28:38;18.35;;;10.02;;
26598;SDS011;14240;51.064;16.612;2022-11-12T07:31:05;11.93;;;6.70;;
26598;SDS011;14240;51.064;16.612;2022-11-12T07:33:32;13.20;;;7.78;;
26598;SDS011;14240;51.064;16.612;2022-11-12T07:36:02;16.42;;;8.07;;
26598;SDS011;14240;51.064;16.612;2022-11-12T07:38:30;19.58;;;8.13;;
26598;SDS011;14240;51.064;16.612;2022-11-12T07:41:01;22.52;;;9.40;;
26598;SDS011;14240;51.064;16.612;2022-11-12T07:43:30;163.48;;;44.00;;
26598;SDS011;14240;51.064;16.612;2022-11-12T07:45:57;321.83;;;91.88;;
26598;SDS011;14240;51.064;16.612;2022-11-12T07:48:24;252.02;;;119.65;;
26598;SDS011;14240;51.064;16.612;2022-11-12T07:50:49;241.82;;;78.63;;
26598;SDS011;14240;51.064;16.612;2022-11-12T07:53:15;125.53;;;35.22;;
26598;SDS011;14240;51.064;16.612;2022-11-12T07:55:41;40.10;;;13.38;;
26598;SDS011;14240;51.064;16.612;2022-11-12T07:58:06;27.77;;;12.07;;
26598;SDS011;14240;51.064;16.612;2022-11-12T08:00:32;22.58;;;8.88;;
26598;SDS011;14240;51.064;16.612;2022-11-12T08:02:58;12.32;;;6.07;;
26598;SDS011;14240;51.064;16.612;2022-11-12T08:05:25;14.32;;;6.00;;
26598;SDS011;14240;51.064;16.612;2022-11-12T08:07:53;9.75;;;6.05;;
26598;SDS011;14240;51.064;16.612;2022-11-12T08:10:20;12.05;;;6.45;;
26598;SDS011;14240;51.064;16.612;2022-11-12T08:12:46;49.55;;;16.13;;
26598;SDS011;14240;51.064;16.612;2022-11-12T08:15:12;117.72;;;32.05;;
26598;SDS011;14240;51.064;16.612;2022-11-12T08:17:38;119.03;;;32.30;;
26598;SDS011;14240;51.064;16.612;2022-11-12T08:20:04;121.70;;;35.00;;
26598;SDS011;14240;51.064;16.612;2022-11-12T08:22:30;45.40;;;17.48;;
26598;SDS011;14240;51.064;16.612;2022-11-12T08:24:57;25.20;;;9.02;;
26598;SDS011;14240;51.064;16.612;2022-11-12T08:27:22;68.25;;;22.35;;
26598;SDS011;14240;51.064;16.612;2022-11-12T08:29:48;123.53;;;33.00;;
26598;SDS011;14240;51.064;16.612;2022-11-12T08:32:14;33.00;;;12.02;;
26598;SDS011;14240;51.064;16.612;2022-11-12T08:34:40;40.95;;;13.30;;
26598;SDS011;14240;51.064;16.612;2022-11-12T08:37:07;40.55;;;16.50;;
26598;SDS011;14240;51.064;16.612;2022-11-12T08:39:33;17.42;;;8.93;;
26598;SDS011;14240;51.064;16.612;2022-11-12T08:41:59;13.07;;;7.25;;
26598;SDS011;14240;51.064;16.612;2022-11-12T08:44:24;19.40;;;8.90;;
26598;SDS011;14240;51.064;16.612;2022-11-12T08:46:50;29.65;;;12.43;;
26598;SDS011;14240;51.064;16.612;2022-11-12T08:49:16;27.90;;;12.32;;
26598;SDS011;14240;51.064;16.612;2022-11-12T08:51:41;23.33;;;11.98;;
26598;SDS011;14240;51.064;16.612;2022-11-12T08:54:07;23.60;;;11.93;;
26598;SDS011;14240;51.064;16.612;2022-11-12T08:56:33;19.52;;;9.77;;
26598;SDS011;14240;51.064;16.612;2022-11-12T08:58:59;17.55;;;8.65;;
26598;SDS011;14240;51.064;16.612;2022-11-12T09:01:25;17.08;;;7.68;;
26598;SDS011;14240;51.064;16.612;2022-11-12T09:03:50;14.77;;;6.80;;
26598;SDS011;14240;51.064;16.612;2022-11-12T09:06:16;17.13;;;8.63;;
26598;SDS011;14240;51.064;16.612;2022-11-12T09:08:42;9.65;;;4.97;;
26598;SDS011;14240;51.064;16.612;2022-11-12T09:11:07;13.50;;;5.95;;
26598;SDS011;14240;51.064;16.612;2022-11-12T09:13:33;12.32;;;5.75;;
26598;SDS011;14240;51.064;16.612;2022-11-12T09:16:03;14.07;;;5.38;;
26598;SDS011;14240;51.064;16.612;2022-11-12T09:18:31;12.45;;;7.22;;
26598;SDS011;14240;51.064;16.612;2022-11-12T09:21:08;9.53;;;6.00;;
26598;SDS011;14240;51.064;16.612;2022-11-12T09:23:35;9.13;;;5.28;;
26598;SDS011;14240;51.064;16.612;2022-11-12T09:26:01;10.65;;;4.93;;
26598;SDS011;14240;51.064;16.612;2022-11-12T09:28:27;10.30;;;5.55;;
26598;SDS011;14240;51.064;16.612;2022-11-12T09:30:53;15.05;;;6.38;;
26598;SDS011;14240;51.064;16.612;2022-11-12T09:33:21;11.35;;;5.25;;
26598;SDS011;14240;51.064;16.612;2022-11-12T09:35:52;11.27;;;5.15;;
26598;SDS011;14240;51.064;16.612;2022-11-12T09:38:18;22.60;;;13.40;;
26598;SDS011;14240;51.064;16.612;2022-11-12T09:43:28;12.98;;;5.57;;
26598;SDS011;14240;51.064;16.612;2022-11-12T09:48:55;7.50;;;5.40;;
26598;SDS011;14240;51.064;16.612;2022-11-12T09:51:42;7.63;;;4.20;;
26598;SDS011;14240;51.064;16.612;2022-11-12T09:56:48;10.27;;;5.30;;
26598;SDS011;14240;51.064;16.612;2022-11-12T09:59:15;10.63;;;5.93;;
26598;SDS011;14240;51.064;16.612;2022-11-12T10:06:53;10.05;;;5.60;;
26598;SDS011;14240;51.064;16.612;2022-11-12T10:18:19;8.57;;;4.97;;
26598;SDS011;14240;51.064;16.612;2022-11-12T10:21:29;8.02;;;4.68;;
26598;SDS011;14240;51.064;16.612;2022-11-12T10:23:58;10.48;;;4.97;;
26598;SDS011;14240;51.064;16.612;2022-11-12T10:26:25;9.30;;;5.07;;
26598;SDS011;14240;51.064;16.612;2022-11-12T10:34:12;9.68;;;4.53;;
26598;SDS011;14240;51.064;16.612;2022-11-12T10:36:58;8.35;;;4.47;;
26598;SDS011;14240;51.064;16.612;2022-11-12T10:39:40;12.40;;;6.25;;
26598;SDS011;14240;51.064;16.612;2022-11-12T10:42:11;15.60;;;9.93;;
26598;SDS011;14240;51.064;16.612;2022-11-12T10:44:39;10.98;;;5.60;;
26598;SDS011;14240;51.064;16.612;2022-11-12T10:52:53;7.25;;;4.75;;
26598;SDS011;14240;51.064;16.612;2022-11-12T10:55:27;6.53;;;4.30;;
26598;SDS011;14240;51.064;16.612;2022-11-12T11:00:33;8.43;;;4.05;;
26598;SDS011;14240;51.064;16.612;2022-11-12T11:03:14;10.90;;;5.47;;
26598;SDS011;14240;51.064;16.612;2022-11-12T11:08:33;10.45;;;5.90;;
26598;SDS011;14240;51.064;16.612;2022-11-12T11:16:58;6.82;;;3.88;;
26598;SDS011;14240;51.064;16.612;2022-11-12T11:19:39;11.35;;;4.32;;
26598;SDS011;14240;51.064;16.612;2022-11-12T11:27:46;9.95;;;4.57;;
26598;SDS011;14240;51.064;16.612;2022-11-12T11:30:23;7.43;;;5.53;;
26598;SDS011;14240;51.064;16.612;2022-11-12T11:43:39;11.18;;;6.10;;
26598;SDS011;14240;51.064;16.612;2022-11-12T11:56:56;14.30;;;6.70;;
26598;SDS011;14240;51.064;16.612;2022-11-12T12:04:59;11.65;;;5.10;;
26598;SDS011;14240;51.064;16.612;2022-11-12T12:10:29;13.43;;;5.93;;
26598;SDS011;14240;51.064;16.612;2022-11-12T12:21:05;10.45;;;6.10;;
26598;SDS011;14240;51.064;16.612;2022-11-12T12:24:24;9.20;;;5.90;;
26598;SDS011;14240;51.064;16.612;2022-11-12T12:26:30;5.93;;;4.50;;
26598;SDS011;14240;51.064;16.612;2022-11-12T12:29:00;12.73;;;6.47;;
26598;SDS011;14240;51.064;16.612;2022-11-12T12:31:34;17.13;;;6.90;;
26598;SDS011;14240;51.064;16.612;2022-11-12T12:34:26;11.02;;;5.75;;
26598;SDS011;14240;51.064;16.612;2022-11-12T12:37:40;14.82;;;7.38;;
26598;SDS011;14240;51.064;16.612;2022-11-12T12:39:54;12.52;;;5.72;;
26598;SDS011;14240;51.064;16.612;2022-11-12T12:42:47;17.17;;;7.07;;
26598;SDS011;14240;51.064;16.612;2022-11-12T12:45:29;14.38;;;6.57;;
26598;SDS011;14240;51.064;16.612;2022-11-12T12:48:17;18.05;;;5.85;;
26598;SDS011;14240;51.064;16.612;2022-11-12T12:51:02;7.25;;;4.78;;
26598;SDS011;14240;51.064;16.612;2022-11-12T12:55:57;10.43;;;5.40;;
26598;SDS011;14240;51.064;16.612;2022-11-12T12:58:47;10.02;;;4.90;;
26598;SDS011;14240;51.064;16.612;2022-11-12T13:04:01;9.82;;;5.35;;
26598;SDS011;14240;51.064;16.612;2022-11-12T13:19:34;13.40;;;6.57;;
26598;SDS011;14240;51.064;16.612;2022-11-12T13:30:08;21.10;;;8.68;;
26598;SDS011;14240;51.064;16.612;2022-11-12T13:32:39;12.18;;;7.82;;
26598;SDS011;14240;51.064;16.612;2022-11-12T13:38:28;16.48;;;8.77;;
26598;SDS011;14240;51.064;16.612;2022-11-12T13:40:45;19.08;;;7.38;;
26598;SDS011;14240;51.064;16.612;2022-11-12T13:49:02;20.88;;;11.48;;
26598;SDS011;14240;51.064;16.612;2022-11-12T13:54:25;11.68;;;6.38;;
26598;SDS011;14240;51.064;16.612;2022-11-12T13:56:51;15.93;;;8.85;;
26598;SDS011;14240;51.064;16.612;2022-11-12T13:59:18;25.75;;;13.15;;
26598;SDS011;14240;51.064;16.612;2022-11-12T14:01:46;17.90;;;9.93;;
26598;SDS011;14240;51.064;16.612;2022-11-12T14:06:49;16.80;;;8.43;;
26598;SDS011;14240;51.064;16.612;2022-11-12T14:17:50;14.85;;;7.35;;
26598;SDS011;14240;51.064;16.612;2022-11-12T14:23:21;17.65;;;8.02;;
26598;SDS011;14240;51.064;16.612;2022-11-12T14:25:51;17.83;;;8.55;;
26598;SDS011;14240;51.064;16.612;2022-11-12T14:28:22;16.55;;;7.60;;
26598;SDS011;14240;51.064;16.612;2022-11-12T14:30:56;16.52;;;8.05;;
26598;SDS011;14240;51.064;16.612;2022-11-12T14:33:24;15.07;;;7.70;;
26598;SDS011;14240;51.064;16.612;2022-11-12T14:35:52;19.40;;;8.93;;
26598;SDS011;14240;51.064;16.612;2022-11-12T14:38:23;21.08;;;10.48;;
26598;SDS011;14240;51.064;16.612;2022-11-12T14:41:00;29.60;;;12.00;;
26598;SDS011;14240;51.064;16.612;2022-11-12T14:46:03;23.80;;;12.68;;
26598;SDS011;14240;51.064;16.612;2022-11-12T14:48:33;27.80;;;13.68;;
26598;SDS011;14240;51.064;16.612;2022-11-12T14:51:17;26.90;;;12.55;;
26598;SDS011;14240;51.064;16.612;2022-11-12T14:53:55;26.80;;;12.73;;
26598;SDS011;14240;51.064;16.612;2022-11-12T14:56:34;27.88;;;13.45;;
26598;SDS011;14240;51.064;16.612;2022-11-12T14:59:05;27.38;;;14.25;;
26598;SDS011;14240;51.064;16.612;2022-11-12T15:01:33;32.78;;;13.13;;
26598;SDS011;14240;51.064;16.612;2022-11-12T15:04:18;22.85;;;12.25;;
26598;SDS011;14240;51.064;16.612;2022-11-12T15:06:52;29.98;;;12.57;;
26598;SDS011;14240;51.064;16.612;2022-11-12T15:09:30;28.85;;;11.23;;
26598;SDS011;14240;51.064;16.612;2022-11-12T15:12:00;51.03;;;12.15;;
26598;SDS011;14240;51.064;16.612;2022-11-12T15:14:32;24.48;;;12.10;;
26598;SDS011;14240;51.064;16.612;2022-11-12T15:16:58;23.50;;;11.18;;
26598;SDS011;14240;51.064;16.612;2022-11-12T15:19:27;22.17;;;10.63;;
26598;SDS011;14240;51.064;16.612;2022-11-12T15:21:57;27.08;;;11.82;;
26598;SDS011;14240;51.064;16.612;2022-11-12T15:26:54;22.60;;;10.13;;
26598;SDS011;14240;51.064;16.612;2022-11-12T15:29:25;22.80;;;10.82;;
26598;SDS011;14240;51.064;16.612;2022-11-12T15:34:29;23.67;;;9.90;;
26598;SDS011;14240;51.064;16.612;2022-11-12T15:37:02;28.20;;;10.90;;
26598;SDS011;14240;51.064;16.612;2022-11-12T15:39:30;22.67;;;11.18;;
26598;SDS011;14240;51.064;16.612;2022-11-12T15:42:03;29.38;;;10.25;;
26598;SDS011;14240;51.064;16.612;2022-11-12T15:44:38;21.15;;;10.32;;
26598;SDS011;14240;51.064;16.612;2022-11-12T15:47:03;16.83;;;9.70;;
26598;SDS011;14240;51.064;16.612;2022-11-12T15:49:29;20.77;;;10.15;;
26598;SDS011;14240;51.064;16.612;2022-11-12T15:51:55;20.88;;;9.55;;
26598;SDS011;14240;51.064;16.612;2022-11-12T15:54:21;22.80;;;10.13;;
26598;SDS011;14240;51.064;16.612;2022-11-12T15:56:46;24.63;;;10.23;;
26598;SDS011;14240;51.064;16.612;2022-11-12T15:59:14;23.80;;;9.80;;
26598;SDS011;14240;51.064;16.612;2022-11-12T16:01:41;19.00;;;9.05;;
26598;SDS011;14240;51.064;16.612;2022-11-12T16:04:07;24.98;;;9.95;;
26598;SDS011;14240;51.064;16.612;2022-11-12T16:06:35;18.40;;;8.95;;
26598;SDS011;14240;51.064;16.612;2022-11-12T16:09:01;19.95;;;9.10;;
26598;SDS011;14240;51.064;16.612;2022-11-12T16:11:26;22.80;;;11.27;;
26598;SDS011;14240;51.064;16.612;2022-11-12T16:14:02;21.48;;;11.40;;
26598;SDS011;14240;51.064;16.612;2022-11-12T16:16:30;21.58;;;9.98;;
26598;SDS011;14240;51.064;16.612;2022-11-12T16:18:56;22.38;;;10.95;;
26598;SDS011;14240;51.064;16.612;2022-11-12T16:21:21;26.05;;;11.55;;
26598;SDS011;14240;51.064;16.612;2022-11-12T16:23:47;25.58;;;11.80;;
26598;SDS011;14240;51.064;16.612;2022-11-12T16:26:13;23.95;;;10.57;;
26598;SDS011;14240;51.064;16.612;2022-11-12T16:28:42;27.00;;;11.75;;
26598;SDS011;14240;51.064;16.612;2022-11-12T16:31:08;23.88;;;11.25;;
26598;SDS011;14240;51.064;16.612;2022-11-12T16:33:34;26.88;;;11.90;;
26598;SDS011;14240;51.064;16.612;2022-11-12T16:36:00;25.75;;;12.32;;
26598;SDS011;14240;51.064;16.612;2022-11-12T16:38:25;19.92;;;10.02;;
26598;SDS011;14240;51.064;16.612;2022-11-12T16:40:51;23.10;;;10.38;;
26598;SDS011;14240;51.064;16.612;2022-11-12T16:43:17;28.08;;;12.38;;
26598;SDS011;14240;51.064;16.612;2022-11-12T16:45:42;28.48;;;11.95;;
26598;SDS011;14240;51.064;16.612;2022-11-12T16:48:15;44.08;;;19.30;;
26598;SDS011;14240;51.064;16.612;2022-11-12T16:50:43;70.80;;;30.38;;
26598;SDS011;14240;51.064;16.612;2022-11-12T16:53:09;84.80;;;33.67;;
26598;SDS011;14240;51.064;16.612;2022-11-12T16:55:35;91.53;;;40.70;;